LFAT

Le Touquet-Côte d'Opale Airport

Le Touquet-Paris-Plage, France
METAR LFAT 191200Z AUTO 25008KT 210V280 4900 BR OVC004 16/15 Q1025 BECMG 9999 NSW
Observed Flight Rules
Jun-19 @ 12:00 UTC (30 minutes ago) Instrument Flight Rules
Wind Visibility Clouds Conditions
250° at 8 knots 4,892 meters
  • Overcast at 400' AGL
  • Mist
Temperatures Readings
Current 16°C / 61°F
Dewpoint 15°C / 59°F
Humidity 94%
Altimeter 30.27" Hg
Pressure 1025 hPa
Elevation 14
METAR LFAT 191200Z AUTO 25008KT 210V280 4900 BR OVC004 16/15 Q1025 BECMG 9999 NSW
Observed Flight Rules
Jun-19 @ 12:00 UTC
(30 minutes ago)
LIFR
Wind Visibility
250° at 8 knots 4,892 meters
Clouds
  • Overcast at 400' AGL
Conditions
  • Mist
Temperature Dewpoint
16°C / 61°F 15°C / 59°F
Humidity Altimeter Pressure
94% 30.27" Hg 1025 hPa